Terminal Aerodrome Forecast
Issued by NWS

Home | Current Version | Previous Version | Text Only | Print | Product List | Glossary On
Versions: 1 2 3 4 5 6 7 8 9 10 11 12 13 14 15 16 17 18 19 20 21 22 23 24 25 26 27 28 29 30 31
000
FTUS45 KBOU 201141
TAFBJC
TAF
KBJC 201141Z 2012/2112 10005KT 5SM -DZ OVC004
      TEMPO 2012/2014 1SM -DZ BR OVC002
     FM201500 10004KT P6SM SCT005 BKN020
     FM201700 09006KT P6SM FEW025 BKN040
     FM202200 10006KT P6SM FEW050 BKN070 BKN120
     FM210300 21009KT P6SM SCT070 BKN140=

USA.gov is the U.S. government's official web portal to all federal, state and local government web resources and services.